Time;durP1;ratioP1;P1;durP2;ratioP2;P2;SDS_P1;SDS_P2;PMS_P1;PMS_P2;Temp;Humidity;BMP_temperature;BMP_pressure;BME280_temperature;BME280_humidity;BME280_pressure;Samples;Min_cycle;Max_cycle;Signal;HPM_P1;HPM_P2
2022/03/13 00:00:39;;;;;;;16.60;7.57;;;;;;;-5.01;60.93;96712.50;1707974;84;21005;-67
2022/03/13 00:03:10;;;;;;;17.98;8.40;;;;;;;-4.97;60.39;96709.70;1708173;84;21048;-67
2022/03/13 00:05:41;;;;;;;15.37;7.20;;;;;;;-4.99;60.16;96699.30;1707882;84;21561;-67
2022/03/13 00:08:22;;;;;;;14.97;7.53;;;;;;;-4.95;61.07;96684.94;1708155;84;21012;-67
2022/03/13 00:10:59;;;;;;;26.20;10.57;;;;;;;-4.93;60.62;96698.39;1697503;84;21535;-67
2022/03/13 00:13:30;;;;;;;19.37;10.67;;;;;;;-4.82;61.53;96693.85;1708059;84;20966;-66
2022/03/13 00:16:09;;;;;;;19.90;10.80;;;;;;;-4.77;61.90;96688.57;1707863;84;21044;-67
2022/03/13 00:18:46;;;;;;;20.67;12.10;;;;;;;-4.72;61.45;96687.14;1707907;84;21032;-66
2022/03/13 00:21:11;;;;;;;32.57;15.47;;;;;;;-4.68;61.21;96680.09;1707871;84;21021;-67
2022/03/13 00:23:38;;;;;;;29.90;15.33;;;;;;;-4.60;61.26;96679.24;1708103;84;21072;-67
2022/03/13 00:26:04;;;;;;;34.73;17.03;;;;;;;-4.50;60.87;96674.22;1707790;84;21040;-67
2022/03/13 00:28:31;;;;;;;37.10;18.23;;;;;;;-4.48;62.17;96679.05;1708089;84;21041;-67
2022/03/13 00:31:00;;;;;;;37.17;18.90;;;;;;;-4.51;62.29;96677.20;1707774;84;21028;-67
2022/03/13 00:33:28;;;;;;;32.33;16.57;;;;;;;-4.50;63.39;96675.09;1707880;84;21028;-67
2022/03/13 00:35:54;;;;;;;35.90;18.67;;;;;;;-4.58;63.37;96675.95;1708085;84;21036;-67
2022/03/13 00:38:25;;;;;;;39.83;20.10;;;;;;;-4.68;65.33;96674.06;1708172;84;20997;-67
2022/03/13 00:40:51;;;;;;;47.50;23.10;;;;;;;-4.77;66.35;96662.82;1707846;84;21136;-67
2022/03/13 00:43:20;;;;;;;43.70;19.50;;;;;;;-4.75;65.17;96661.23;1707991;84;21012;-67
2022/03/13 00:45:47;;;;;;;36.53;19.03;;;;;;;-4.70;65.12;96660.20;1707997;84;21082;-67
2022/03/13 00:48:15;;;;;;;33.00;16.50;;;;;;;-4.66;64.89;96656.98;1707806;84;21065;-67
2022/03/13 00:50:43;;;;;;;15.60;8.87;;;;;;;-4.51;64.54;96656.97;1707950;84;21021;-67
2022/03/13 00:53:09;;;;;;;13.17;7.03;;;;;;;-4.47;63.22;96655.06;1707945;84;21495;-67
2022/03/13 00:55:36;;;;;;;31.00;17.60;;;;;;;-4.45;62.61;96657.33;1690003;84;20993;-67
2022/03/13 00:58:03;;;;;;;58.80;29.30;;;;;;;-4.57;65.32;96654.53;1708085;84;21495;-67
2022/03/13 01:00:30;;;;;;;21.90;10.47;;;;;;;-4.54;64.26;96653.81;1707829;84;21020;-67
2022/03/13 01:02:57;;;;;;;16.13;9.20;;;;;;;-4.49;63.48;96643.37;1707967;84;21067;-67
2022/03/13 01:05:26;;;;;;;20.70;11.63;;;;;;;-4.37;62.15;96647.92;1707943;84;21016;-67
2022/03/13 01:07:57;;;;;;;37.27;19.00;;;;;;;-4.31;63.31;96637.47;1707732;84;21005;-67
2022/03/13 01:10:24;;;;;;;34.63;17.43;;;;;;;-4.14;63.71;96636.29;1707998;84;20993;-67
2022/03/13 01:12:53;;;;;;;38.37;19.67;;;;;;;-4.03;63.31;96635.98;1707930;84;21052;-67
2022/03/13 01:15:21;;;;;;;35.50;17.47;;;;;;;-3.97;63.47;96633.34;1707874;84;21005;-67
2022/03/13 01:17:48;;;;;;;45.10;23.10;;;;;;;-4.03;64.04;96635.60;1707858;84;21049;-67
2022/03/13 01:20:21;;;;;;;37.20;20.33;;;;;;;-4.08;62.27;96634.47;1708051;84;21067;-67
2022/03/13 01:22:49;;;;;;;37.93;19.92;;;;;;;-4.08;62.05;96633.19;1707804;84;21048;-67
2022/03/13 01:25:17;;;;;;;25.90;14.47;;;;;;;-4.08;61.52;96633.56;1708144;84;21032;-67
2022/03/13 01:27:45;;;;;;;19.23;10.23;;;;;;;-4.11;61.18;96634.28;1708161;84;21491;-67
2022/03/13 01:30:15;;;;;;;16.03;9.20;;;;;;;-4.13;61.05;96632.05;1707817;84;20981;-67
2022/03/13 01:32:43;;;;;;;15.83;8.63;;;;;;;-4.11;61.47;96625.67;1707893;84;21515;-67
2022/03/13 01:35:10;;;;;;;10.30;6.50;;;;;;;-4.02;60.84;96620.61;1707853;84;21034;-67
2022/03/13 01:37:41;;;;;;;13.50;7.77;;;;;;;-3.99;60.13;96619.89;1708097;84;21616;-67
2022/03/13 01:40:14;;;;;;;24.40;13.47;;;;;;;-4.02;59.84;96620.61;1707773;84;21040;-66
2022/03/13 01:42:41;;;;;;;13.77;7.97;;;;;;;-4.05;62.09;96619.58;1707788;84;21037;-67
2022/03/13 01:45:15;;;;;;;13.03;7.70;;;;;;;-3.95;61.14;96620.14;1707943;84;21558;-67
2022/03/13 01:47:44;;;;;;;12.40;7.27;;;;;;;-3.90;60.39;96619.09;1707970;84;21027;-67
2022/03/13 01:50:13;;;;;;;17.77;7.87;;;;;;;-3.93;60.31;96613.79;1707747;84;21503;-67
2022/03/13 01:52:45;;;;;;;17.87;9.93;;;;;;;-3.91;60.53;96609.57;1707969;84;21020;-67
2022/03/13 01:55:12;;;;;;;19.67;10.77;;;;;;;-3.75;60.86;96608.30;1707951;84;21040;-67
2022/03/13 01:57:40;;;;;;;30.20;14.37;;;;;;;-3.67;61.10;96608.70;1707919;84;21511;-67
2022/03/13 02:00:09;;;;;;;32.20;15.53;;;;;;;-3.75;62.03;96607.02;1708021;84;21032;-67
2022/03/13 02:02:47;;;;;;;34.63;15.60;;;;;;;-3.66;61.79;96606.59;1707909;84;21566;-67
2022/03/13 02:05:30;;;;;;;24.53;13.97;;;;;;;-3.68;60.64;96600.45;1707855;84;21025;-67
2022/03/13 02:07:59;;;;;;;29.42;16.42;;;;;;;-3.76;60.38;96606.92;1708003;84;21040;-67
2022/03/13 02:10:27;;;;;;;34.77;19.00;;;;;;;-3.88;62.17;96611.42;1707983;84;21608;-67
2022/03/13 02:12:55;;;;;;;32.97;18.00;;;;;;;-3.86;62.50;96605.95;1708115;84;21499;-67
2022/03/13 02:15:22;;;;;;;32.80;17.70;;;;;;;-3.89;62.23;96607.97;1707923;84;21037;-67
2022/03/13 02:17:50;;;;;;;38.03;21.50;;;;;;;-3.94;60.96;96605.55;1707683;84;21076;-67
2022/03/13 02:20:21;;;;;;;32.67;18.30;;;;;;;-3.84;60.51;96606.92;1708201;84;21571;-67
2022/03/13 02:22:51;;;;;;;33.90;17.83;;;;;;;-3.82;59.45;96600.16;1711042;84;21076;-67
2022/03/13 02:25:22;;;;;;;28.23;15.17;;;;;;;-3.66;59.52;96597.97;1715788;83;21156;-67
2022/03/13 02:27:51;;;;;;;24.20;14.58;;;;;;;-3.61;60.10;96603.84;1716252;84;21049;-67
2022/03/13 02:30:22;;;;;;;27.17;12.70;;;;;;;-3.65;60.04;96602.31;1715786;83;21125;-67
2022/03/13 02:32:48;;;;;;;22.73;11.33;;;;;;;-3.65;59.19;96601.02;1715613;84;21573;-67
2022/03/13 02:35:17;;;;;;;23.00;12.60;;;;;;;-3.69;59.71;96596.13;1715798;83;21032;-67
2022/03/13 02:37:44;;;;;;;19.23;9.33;;;;;;;-3.72;59.45;96598.55;1715674;84;21096;-67
2022/03/13 02:40:24;;;;;;;14.97;8.73;;;;;;;-3.58;59.06;96594.09;1715833;84;21097;-67
2022/03/13 02:42:52;;;;;;;14.53;8.20;;;;;;;-3.50;58.97;96589.82;1715316;84;21076;-67
2022/03/13 02:45:32;;;;;;;13.33;7.90;;;;;;;-3.43;58.94;96584.55;1715600;83;21507;-68
2022/03/13 02:48:04;;;;;;;17.77;8.07;;;;;;;-3.41;58.78;96588.09;1715820;84;21093;-67
2022/03/13 02:50:32;;;;;;;14.00;7.72;;;;;;;-3.45;59.79;96594.31;1716057;83;21092;-66
2022/03/13 02:52:59;;;;;;;14.70;7.67;;;;;;;-3.51;59.43;96585.45;1715550;84;21101;-66
2022/03/13 02:55:27;;;;;;;15.03;7.37;;;;;;;-3.58;60.55;96581.19;1715882;83;21044;-67
2022/03/13 02:57:54;;;;;;;16.13;9.97;;;;;;;-3.60;60.34;96577.27;1715750;84;21036;-66
2022/03/13 03:00:23;;;;;;;19.40;10.43;;;;;;;-3.47;61.03;96581.34;1715854;84;21021;-66
2022/03/13 03:02:50;;;;;;;22.67;11.27;;;;;;;-3.31;60.80;96581.30;1685245;85;21032;-66
2022/03/13 03:05:17;;;;;;;12.80;7.37;;;;;;;-3.28;60.05;96569.87;1685851;85;21128;-66
2022/03/13 03:07:43;;;;;;;16.77;7.90;;;;;;;-3.14;59.91;96575.70;1715970;84;21032;-66
2022/03/13 03:10:13;;;;;;;15.97;8.47;;;;;;;-3.05;59.62;96568.42;1715641;83;21001;-66
2022/03/13 03:12:39;;;;;;;18.87;9.40;;;;;;;-3.06;59.66;96567.92;1715962;83;20969;-66
2022/03/13 03:15:06;;;;;;;18.23;9.80;;;;;;;-3.01;59.88;96569.86;1715747;83;21033;-66
2022/03/13 03:17:33;;;;;;;18.40;10.10;;;;;;;-3.04;58.98;96566.72;1715882;84;21032;-67
2022/03/13 03:19:59;;;;;;;14.30;8.27;;;;;;;-3.10;58.56;96564.73;1704229;83;21060;-66
2022/03/13 03:22:26;;;;;;;17.97;9.33;;;;;;;-3.13;58.58;96555.52;1702197;84;21031;-67
2022/03/13 03:24:52;;;;;;;17.17;10.10;;;;;;;-3.11;58.33;96547.86;1715927;84;21072;-67
2022/03/13 03:27:19;;;;;;;30.50;17.30;;;;;;;-3.14;58.40;96539.56;1715979;84;20972;-67
2022/03/13 03:29:45;;;;;;;36.57;19.57;;;;;;;-3.06;58.80;96551.14;1716026;83;21475;-67
2022/03/13 03:32:12;;;;;;;33.00;18.27;;;;;;;-2.98;58.34;96554.50;1715931;83;21009;-67
2022/03/13 03:34:39;;;;;;;25.23;13.37;;;;;;;-2.95;58.13;96552.97;1715765;83;21641;-66
2022/03/13 03:37:05;;;;;;;21.43;11.13;;;;;;;-2.92;57.56;96546.66;1716125;84;21486;-67
2022/03/13 03:39:33;;;;;;;20.97;11.07;;;;;;;-2.96;58.01;96550.30;1715904;84;21028;-66
2022/03/13 03:42:02;;;;;;;17.63;9.53;;;;;;;-2.98;58.20;96554.50;1715881;84;20969;-66
2022/03/13 03:44:28;;;;;;;21.23;10.30;;;;;;;-3.06;57.23;96551.14;1715923;83;21084;-66
2022/03/13 03:46:55;;;;;;;20.27;10.47;;;;;;;-3.10;57.15;96549.62;1715936;84;21016;-66
2022/03/13 03:49:23;;;;;;;19.87;10.90;;;;;;;-3.06;57.63;96551.14;1715321;84;21818;-67
2022/03/13 03:51:51;;;;;;;18.60;10.23;;;;;;;-2.96;57.73;96546.43;1716008;83;21068;-67
2022/03/13 03:54:17;;;;;;;11.97;7.63;;;;;;;-2.88;57.55;96546.39;1715911;84;21067;-67
2022/03/13 03:56:44;;;;;;;21.23;10.43;;;;;;;-2.78;57.17;96548.59;1715811;84;21056;-67
2022/03/13 03:59:11;;;;;;;16.10;9.47;;;;;;;-2.84;56.36;96547.91;1715904;84;20997;-66
2022/03/13 04:01:41;;;;;;;20.43;11.13;;;;;;;-2.90;55.46;96543.75;1715876;84;21041;-67
2022/03/13 04:04:09;;;;;;;17.03;9.70;;;;;;;-2.93;55.51;96546.16;1715775;83;21048;-67
2022/03/13 04:06:40;;;;;;;18.27;9.60;;;;;;;-2.81;56.22;96535.55;1715848;84;21077;-66
2022/03/13 04:09:08;;;;;;;12.63;8.00;;;;;;;-2.80;56.31;96533.43;1715910;84;21053;-67
2022/03/13 04:11:35;;;;;;;22.53;8.40;;;;;;;-2.90;55.57;96536.00;1715852;84;21032;-66
2022/03/13 04:14:03;;;;;;;14.30;8.30;;;;;;;-2.91;56.55;96538.09;1715897;84;21064;-67
2022/03/13 04:16:30;;;;;;;15.67;9.23;;;;;;;-2.81;56.65;96544.59;1715855;84;21499;-67
2022/03/13 04:18:57;;;;;;;15.73;8.23;;;;;;;-2.80;57.47;96541.59;1715818;83;21060;-67
2022/03/13 04:21:24;;;;;;;15.03;8.30;;;;;;;-2.78;56.40;96540.84;1715982;84;21028;-66
2022/03/13 04:23:52;;;;;;;14.27;8.17;;;;;;;-2.78;56.32;96536.98;1715516;84;21557;-66
2022/03/13 04:26:18;;;;;;;15.27;8.30;;;;;;;-2.72;56.52;96535.08;1715897;83;21032;-67
2022/03/13 04:28:45;;;;;;;15.03;8.53;;;;;;;-2.71;56.15;96542.03;1716014;83;21053;-66
2022/03/13 04:31:13;;;;;;;13.37;7.70;;;;;;;-2.69;56.22;96532.67;1715900;84;21483;-66
2022/03/13 04:33:40;;;;;;;12.90;7.97;;;;;;;-2.75;56.56;96535.82;1715861;83;21000;-66
2022/03/13 04:36:13;;;;;;;15.70;8.30;;;;;;;-2.85;58.04;96541.36;1715952;84;21040;-67
2022/03/13 04:38:35;;;;;;;16.27;8.07;;;;;;;-2.87;57.09;96537.44;1661790;85;21132;-67
2022/03/13 04:41:02;;;;;;;12.47;7.33;;;;;;;-2.83;56.71;96538.45;1716053;83;21056;-66
2022/03/13 04:43:28;;;;;;;15.83;8.17;;;;;;;-2.85;57.24;96539.70;1716066;84;21486;-66
2022/03/13 04:45:57;;;;;;;26.00;12.17;;;;;;;-2.87;56.29;96542.60;1715794;83;21136;-66
2022/03/13 04:48:23;;;;;;;16.00;7.97;;;;;;;-2.86;56.62;96541.77;1704007;83;21032;-67
2022/03/13 04:50:50;;;;;;;15.30;7.90;;;;;;;-2.86;56.37;96539.61;1715943;84;21081;-67
2022/03/13 04:53:17;;;;;;;16.50;7.73;;;;;;;-2.81;57.21;96542.00;1715926;84;21005;-67
2022/03/13 04:55:43;;;;;;;13.37;6.80;;;;;;;-2.71;56.87;96544.62;1715952;84;21028;-67
2022/03/13 04:58:12;;;;;;;11.07;5.70;;;;;;;-2.65;56.66;96544.48;1715788;83;21016;-67
2022/03/13 05:00:38;;;;;;;13.57;6.80;;;;;;;-2.61;56.28;96545.53;1715916;84;21084;-67
2022/03/13 05:03:06;;;;;;;13.37;7.67;;;;;;;-2.68;56.13;96541.77;1715795;84;21021;-67
2022/03/13 05:05:34;;;;;;;11.97;6.97;;;;;;;-2.65;56.29;96545.77;1716327;84;21036;-67
2022/03/13 05:08:05;;;;;;;13.30;7.57;;;;;;;-2.71;55.74;96539.04;1715984;84;21522;-67
2022/03/13 05:10:36;;;;;;;14.90;7.73;;;;;;;-2.77;56.19;96540.44;1703551;84;21505;-66
2022/03/13 05:13:06;;;;;;;21.53;11.43;;;;;;;-2.79;56.53;96545.55;1715844;84;21075;-67
2022/03/13 05:15:33;;;;;;;18.60;8.47;;;;;;;-2.76;56.92;96542.23;1703686;84;21095;-66
2022/03/13 05:18:01;;;;;;;15.20;8.20;;;;;;;-2.70;56.09;96548.55;1715824;84;21075;-66
2022/03/13 05:20:28;;;;;;;19.87;9.37;;;;;;;-2.69;56.06;96546.88;1715514;84;21128;-66
2022/03/13 05:22:55;;;;;;;16.13;9.00;;;;;;;-2.71;55.90;96549.38;1715343;83;21064;-67
2022/03/13 05:25:23;;;;;;;13.97;7.60;;;;;;;-2.73;56.46;96547.12;1707965;84;21068;-67
2022/03/13 05:27:52;;;;;;;13.83;7.77;;;;;;;-2.69;56.56;96549.45;1707863;84;21486;-67
2022/03/13 05:30:20;;;;;;;10.93;6.80;;;;;;;-2.59;56.56;96545.62;1708031;84;21037;-67
2022/03/13 05:32:48;;;;;;;17.20;8.03;;;;;;;-2.54;56.91;96542.42;1695301;85;21095;-68
2022/03/13 05:35:17;;;;;;;10.97;5.47;;;;;;;-2.49;57.07;96551.28;1695243;83;21012;-67
2022/03/13 05:37:45;;;;;;;40.17;15.50;;;;;;;-2.48;56.75;96553.03;1695336;85;21048;-67
2022/03/13 05:40:15;;;;;;;21.53;10.67;;;;;;;-2.51;56.40;96551.61;1695795;85;21494;-67
2022/03/13 05:42:48;;;;;;;20.90;10.47;;;;;;;-2.52;56.90;96547.65;1695412;84;21031;-67
2022/03/13 05:45:16;;;;;;;22.00;9.70;;;;;;;-2.46;56.46;96550.53;1695515;85;21040;-67
2022/03/13 05:47:53;;;;;;;32.03;14.77;;;;;;;-2.43;56.31;96554.14;1695416;84;21120;-67
2022/03/13 05:50:23;;;;;;;25.60;12.57;;;;;;;-2.35;56.26;96555.78;1695242;84;21001;-67
2022/03/13 05:52:50;;;;;;;43.33;19.27;;;;;;;-2.25;56.05;96559.68;1695308;85;21635;-67
2022/03/13 05:55:19;;;;;;;60.63;24.93;;;;;;;-2.21;56.38;96556.02;1695315;85;21008;-67
2022/03/13 05:57:45;;;;;;;36.30;16.67;;;;;;;-2.19;55.96;96558.27;1695425;84;21087;-67
2022/03/13 06:00:16;;;;;;;54.43;22.73;;;;;;;-2.14;55.58;96565.33;1695465;84;21068;-67
2022/03/13 06:02:47;;;;;;;50.83;21.97;;;;;;;-2.12;54.88;96563.70;1695345;85;20984;-67
2022/03/13 06:05:17;;;;;;;34.17;17.00;;;;;;;-2.12;54.49;96564.59;1695379;85;21055;-66
2022/03/13 06:07:46;;;;;;;36.20;16.83;;;;;;;-2.03;53.89;96562.43;1695370;85;21024;-67
2022/03/13 06:10:14;;;;;;;34.60;16.53;;;;;;;-1.91;54.30;96557.34;1695061;85;21514;-67
2022/03/13 06:12:41;;;;;;;25.33;14.30;;;;;;;-1.80;53.28;96553.11;1695388;85;21084;-67
2022/03/13 06:15:14;;;;;;;28.13;13.00;;;;;;;-1.68;53.17;96559.66;1695380;85;21072;-67
2022/03/13 06:17:44;;;;;;;34.03;15.70;;;;;;;-1.57;53.09;96555.41;1695508;85;21511;-67
2022/03/13 06:20:14;;;;;;;80.77;31.50;;;;;;;-1.45;52.06;96555.05;1695359;85;21023;-67
2022/03/13 06:22:44;;;;;;;55.17;23.83;;;;;;;-1.39;51.39;96556.59;1695301;85;21012;-68
2022/03/13 06:25:13;;;;;;;59.93;25.13;;;;;;;-1.47;50.81;96554.09;1697966;84;21079;-67
2022/03/13 06:27:41;;;;;;;130.60;52.30;;;;;;;-1.43;51.89;96553.84;1698346;84;21086;-67
2022/03/13 06:30:14;;;;;;;110.43;42.27;;;;;;;-1.33;51.86;96549.11;1698239;84;21036;-67
2022/03/13 06:32:44;;;;;;;29.37;14.35;;;;;;;-1.28;51.00;96542.84;1698473;84;21491;-67
2022/03/13 06:35:12;;;;;;;15.90;9.10;;;;;;;-1.24;49.68;96552.48;1698365;84;21007;-67
2022/03/13 06:37:40;;;;;;;20.03;10.53;;;;;;;-1.14;50.28;96545.98;1698241;84;21609;-67
2022/03/13 06:40:09;;;;;;;15.00;9.83;;;;;;;-1.02;48.78;96544.33;1672434;84;21008;-67
2022/03/13 06:42:35;;;;;;;15.53;8.40;;;;;;;-0.97;46.60;96548.87;1698477;84;21591;-67
2022/03/13 06:45:03;;;;;;;18.87;10.00;;;;;;;-0.95;47.74;96545.93;1698282;84;21124;-67
2022/03/13 06:47:30;;;;;;;24.03;12.13;;;;;;;-0.95;46.48;96548.52;1698546;84;21016;-67
2022/03/13 06:49:57;;;;;;;22.60;12.93;;;;;;;-0.95;47.21;96550.23;1698389;84;21071;-67
2022/03/13 06:52:23;;;;;;;17.73;10.90;;;;;;;-0.99;47.18;96547.03;1698426;84;21016;-66
2022/03/13 06:54:50;;;;;;;22.43;11.07;;;;;;;-0.97;46.46;96559.23;1698555;84;21104;-67
2022/03/13 06:57:18;;;;;;;24.23;12.00;;;;;;;-0.94;46.66;96558.05;1698462;84;21067;-67
2022/03/13 06:59:46;;;;;;;27.03;12.83;;;;;;;-0.86;46.58;96549.30;1698597;84;21530;-67
2022/03/13 07:02:13;;;;;;;20.83;11.93;;;;;;;-0.85;46.71;96545.02;1698554;84;21048;-67
2022/03/13 07:04:40;;;;;;;19.67;11.80;;;;;;;-0.80;46.54;96556.45;1698214;84;21103;-68
2022/03/13 07:07:07;;;;;;;22.27;12.03;;;;;;;-0.73;46.08;96545.10;1698452;84;21511;-68
2022/03/13 07:09:34;;;;;;;20.17;12.20;;;;;;;-0.70;46.75;96550.81;1698341;84;21071;-67
2022/03/13 07:12:01;;;;;;;19.90;11.30;;;;;;;-0.62;47.27;96551.13;1698415;84;21103;-67
2022/03/13 07:14:29;;;;;;;21.27;11.63;;;;;;;-0.50;47.37;96548.60;1698545;84;21053;-67
2022/03/13 07:16:57;;;;;;;21.60;12.13;;;;;;;-0.37;47.13;96554.27;1698426;84;21685;-67
2022/03/13 07:19:24;;;;;;;20.30;10.90;;;;;;;-0.20;46.58;96551.00;1698187;84;21048;-67
2022/03/13 07:21:50;;;;;;;20.90;11.30;;;;;;;-0.09;46.74;96555.78;1698414;84;21075;-67
2022/03/13 07:24:17;;;;;;;20.73;10.20;;;;;;;-0.03;45.94;96553.83;1704772;84;21115;-67
2022/03/13 07:26:44;;;;;;;23.03;11.47;;;;;;;0.10;46.04;96558.67;1728179;83;21000;-67
2022/03/13 07:29:11;;;;;;;28.23;14.87;;;;;;;0.23;45.37;96556.49;1728227;83;21023;-66
2022/03/13 07:31:37;;;;;;;20.40;11.83;;;;;;;0.38;45.95;96558.38;1728359;83;21016;-67
2022/03/13 07:34:04;;;;;;;23.00;12.23;;;;;;;0.48;44.04;96558.27;1728192;83;21593;-67
2022/03/13 07:36:34;;;;;;;22.83;12.73;;;;;;;0.59;43.40;96559.12;1728301;83;21032;-67
2022/03/13 07:38:59;;;;;;;23.73;12.90;;;;;;;0.70;43.12;96559.49;1728177;83;21009;-67
2022/03/13 07:41:28;;;;;;;25.07;14.20;;;;;;;0.73;43.71;96563.91;1728283;83;21083;-67
2022/03/13 07:43:54;;;;;;;26.37;14.90;;;;;;;0.78;43.08;96568.47;1728391;83;21127;-67
2022/03/13 07:46:21;;;;;;;28.50;16.20;;;;;;;0.88;42.38;96561.84;1728367;83;21063;-67
2022/03/13 07:48:48;;;;;;;19.83;12.23;;;;;;;0.94;42.28;96568.98;1728138;83;21044;-68
2022/03/13 07:51:17;;;;;;;22.73;12.83;;;;;;;0.97;42.72;96566.48;1728285;83;21537;-68
2022/03/13 07:53:44;;;;;;;17.67;9.77;;;;;;;1.10;43.61;96563.45;1728242;83;21047;-68
2022/03/13 07:56:11;;;;;;;14.03;8.10;;;;;;;1.26;42.78;96563.15;1728221;83;21016;-68
2022/03/13 07:58:37;;;;;;;13.67;8.17;;;;;;;1.34;41.81;96569.90;1728301;83;21044;-67
2022/03/13 08:01:03;;;;;;;14.17;7.17;;;;;;;1.48;41.48;96567.73;1728289;83;21037;-67
2022/03/13 08:03:36;;;;;;;12.80;7.20;;;;;;;1.56;40.27;96571.87;1728316;83;21023;-67
2022/03/13 08:05:58;;;;;;;9.60;5.67;;;;;;;1.67;41.53;96566.19;1728022;83;21008;-67
2022/03/13 08:08:25;;;;;;;8.67;5.27;;;;;;;1.82;39.94;96563.17;1728378;83;21506;-67
2022/03/13 08:10:52;;;;;;;8.70;4.97;;;;;;;1.92;40.05;96557.41;1728211;83;21009;-67
2022/03/13 08:13:18;;;;;;;8.60;4.87;;;;;;;2.04;40.25;96563.81;1728396;83;21550;-67
2022/03/13 08:15:45;;;;;;;7.90;4.73;;;;;;;2.14;38.14;96563.23;1728291;83;21008;-67
2022/03/13 08:18:12;;;;;;;9.43;4.50;;;;;;;2.23;37.22;96564.83;1728282;83;21079;-67
2022/03/13 08:20:39;;;;;;;6.23;4.37;;;;;;;2.26;37.48;96566.63;1728130;83;21044;-67
2022/03/13 08:23:05;;;;;;;6.10;3.93;;;;;;;2.36;37.31;96566.06;1728179;83;21004;-67
2022/03/13 08:25:32;;;;;;;10.37;4.93;;;;;;;2.41;37.37;96577.91;1712527;83;21069;-68
2022/03/13 08:27:59;;;;;;;9.17;4.87;;;;;;;2.45;36.01;96571.54;1708028;84;21032;-68
2022/03/13 08:30:26;;;;;;;7.67;4.60;;;;;;;2.51;35.41;96573.42;1707965;84;21066;-68
2022/03/13 08:32:52;;;;;;;7.97;4.63;;;;;;;2.56;35.04;96584.44;1708153;84;21076;-68
2022/03/13 08:35:20;;;;;;;8.73;4.77;;;;;;;2.60;34.52;96585.00;1708011;84;21061;-68
2022/03/13 08:37:48;;;;;;;7.90;4.80;;;;;;;2.52;34.82;96592.11;1708021;84;21045;-68
2022/03/13 08:40:15;;;;;;;8.17;4.03;;;;;;;2.40;33.62;96595.27;1708163;84;20977;-67
2022/03/13 08:42:42;;;;;;;8.70;4.73;;;;;;;2.29;34.12;96595.36;1708146;84;20977;-68
2022/03/13 08:45:11;;;;;;;9.07;4.40;;;;;;;2.30;34.31;96593.23;1708015;84;21025;-67
2022/03/13 08:47:41;;;;;;;7.30;4.63;;;;;;;2.29;34.54;96586.25;1707948;84;21500;-67
2022/03/13 08:50:09;;;;;;;7.80;4.63;;;;;;;2.31;34.54;96585.45;1707768;84;21060;-67
2022/03/13 08:52:36;;;;;;;7.17;4.30;;;;;;;2.35;34.63;96584.72;1707994;84;21060;-67
2022/03/13 08:55:06;;;;;;;6.83;4.50;;;;;;;2.39;33.67;96583.06;1707994;84;21000;-67
2022/03/13 08:57:34;;;;;;;9.83;5.50;;;;;;;2.48;33.99;96581.16;1707985;84;21001;-67
2022/03/13 09:00:00;;;;;;;5.20;3.40;;;;;;;2.56;32.96;96585.73;1708060;84;21064;-67
2022/03/13 09:02:27;;;;;;;9.03;4.87;;;;;;;2.50;32.41;96576.45;1707990;84;21025;-67
2022/03/13 09:04:54;;;;;;;8.13;4.47;;;;;;;2.62;33.62;96571.11;1707615;84;20986;-68
2022/03/13 09:07:20;;;;;;;7.60;4.23;;;;;;;2.72;31.94;96568.83;1708135;84;21053;-68
2022/03/13 09:09:47;;;;;;;9.03;4.70;;;;;;;2.91;31.69;96571.92;1708135;84;21096;-68
2022/03/13 09:12:14;;;;;;;9.17;4.70;;;;;;;3.19;33.84;96565.70;1708093;84;21008;-68
2022/03/13 09:14:40;;;;;;;8.20;4.57;;;;;;;3.45;32.29;96557.20;1708109;84;21017;-68
2022/03/13 09:17:07;;;;;;;8.27;5.00;;;;;;;3.67;32.79;96562.52;1707967;84;20997;-68
2022/03/13 09:19:34;;;;;;;7.77;4.83;;;;;;;3.85;31.59;96560.76;1707884;84;21076;-68
2022/03/13 09:22:00;;;;;;;14.97;4.73;;;;;;;3.93;30.80;96563.14;1708072;84;21029;-68
2022/03/13 09:24:27;;;;;;;7.47;3.60;;;;;;;4.03;31.10;96561.20;1709631;84;21064;-68
2022/03/13 09:26:54;;;;;;;9.70;5.30;;;;;;;4.04;30.72;96562.95;1715856;83;21004;-68
2022/03/13 09:29:21;;;;;;;7.93;5.00;;;;;;;4.03;29.67;96562.90;1715920;83;21009;-67
2022/03/13 09:31:47;;;;;;;6.17;3.90;;;;;;;3.81;28.84;96562.86;1715876;83;20980;-67
2022/03/13 09:34:14;;;;;;;6.87;4.40;;;;;;;3.73;29.26;96565.30;1715791;83;20985;-67
2022/03/13 09:36:42;;;;;;;8.13;4.00;;;;;;;3.65;30.01;96560.30;1715840;84;21534;-67
2022/03/13 09:39:10;;;;;;;9.30;5.43;;;;;;;3.61;29.74;96567.61;1715681;84;21067;-67
2022/03/13 09:41:40;;;;;;;9.00;5.07;;;;;;;3.43;29.40;96568.05;1715868;84;21005;-67
2022/03/13 09:44:08;;;;;;;8.10;4.77;;;;;;;3.65;29.79;96562.51;1715948;83;21542;-67
2022/03/13 09:46:38;;;;;;;18.07;4.83;;;;;;;4.03;30.98;96553.77;1715801;83;21009;-67
2022/03/13 09:49:07;;;;;;;7.90;4.43;;;;;;;4.39;28.86;96544.54;1715825;84;21093;-67
2022/03/13 09:51:34;;;;;;;8.83;5.27;;;;;;;4.43;27.80;96550.70;1715771;83;21004;-67
2022/03/13 09:54:02;;;;;;;11.67;6.00;;;;;;;4.72;28.35;96553.47;1715960;83;20985;-67
2022/03/13 09:56:29;;;;;;;6.53;4.60;;;;;;;4.61;27.67;96552.40;1715899;83;21536;-68
2022/03/13 09:58:55;;;;;;;7.47;5.20;;;;;;;4.51;29.04;96556.95;1715773;84;21040;-68
2022/03/13 10:01:22;;;;;;;9.33;5.40;;;;;;;4.58;28.12;96552.31;1715909;83;21460;-68
2022/03/13 10:03:49;;;;;;;6.10;4.27;;;;;;;4.86;29.54;96547.62;1715898;84;21040;-68
2022/03/13 10:06:15;;;;;;;7.80;5.20;;;;;;;5.06;28.76;96553.22;1715849;83;21462;-68
2022/03/13 10:08:42;;;;;;;6.50;4.27;;;;;;;5.19;29.37;96549.95;1715755;84;21145;-68
2022/03/13 10:11:10;;;;;;;8.53;6.00;;;;;;;5.03;28.88;96551.43;1715935;84;21020;-67
2022/03/13 10:13:40;;;;;;;7.40;4.47;;;;;;;4.75;27.17;96557.45;1691903;84;21486;-68
2022/03/13 10:16:19;;;;;;;6.47;4.03;;;;;;;4.62;29.08;96558.06;1715857;83;20992;-68
2022/03/13 10:18:46;;;;;;;7.03;4.00;;;;;;;4.70;28.62;96550.38;1715930;84;21024;-68
2022/03/13 10:21:19;;;;;;;7.57;4.83;;;;;;;4.97;28.89;96548.72;1715559;84;21036;-68
2022/03/13 10:23:47;;;;;;;6.87;4.33;;;;;;;5.14;29.31;96549.00;1715952;83;21494;-67
2022/03/13 10:26:22;;;;;;;5.40;4.27;;;;;;;5.13;28.97;96541.58;1715878;84;21036;-67
2022/03/13 10:28:49;;;;;;;6.90;5.00;;;;;;;5.19;27.95;96546.03;1713702;84;21040;-67
2022/03/13 10:31:16;;;;;;;8.13;5.47;;;;;;;5.19;28.04;96550.87;1715819;84;21052;-67
2022/03/13 10:33:49;;;;;;;8.27;5.30;;;;;;;5.12;26.87;96549.42;1715798;84;21136;-67
2022/03/13 10:36:31;;;;;;;10.23;5.40;;;;;;;4.95;26.17;96552.59;1715670;84;21144;-68
2022/03/13 10:38:52;;;;;;;9.50;5.40;;;;;;;4.94;27.27;96549.54;1714479;84;21080;-68
2022/03/13 10:41:20;;;;;;;6.17;4.37;;;;;;;4.93;26.87;96548.19;1715466;84;20988;-68
2022/03/13 10:43:55;;;;;;;6.30;4.13;;;;;;;5.04;27.95;96551.00;1715753;84;21025;-68
2022/03/13 10:46:31;;;;;;;7.67;5.17;;;;;;;5.15;29.59;96542.50;1715806;84;21583;-68
2022/03/13 10:49:00;;;;;;;7.90;5.17;;;;;;;5.16;27.73;96545.98;1715563;84;21151;-68
2022/03/13 10:51:45;;;;;;;10.60;6.03;;;;;;;4.80;27.76;96548.82;1715692;84;21060;-68
2022/03/13 10:54:30;;;;;;;7.63;5.33;;;;;;;4.93;26.84;96543.84;1715633;84;21040;-68
2022/03/13 10:57:11;;;;;;;7.70;5.27;;;;;;;5.31;27.28;96537.52;1715134;84;21089;-68
2022/03/13 10:59:41;;;;;;;7.93;4.90;;;;;;;5.76;27.05;96523.41;1711954;84;21036;-68
2022/03/13 11:02:22;;;;;;;8.87;5.40;;;;;;;5.92;25.88;96514.94;1715806;84;21055;-67
2022/03/13 11:04:57;;;;;;;10.40;6.27;;;;;;;6.19;25.85;96517.06;1715799;83;21097;-67
2022/03/13 11:07:29;;;;;;;9.17;5.70;;;;;;;6.00;25.34;96509.41;1715897;83;21514;-68
2022/03/13 11:09:57;;;;;;;7.97;5.30;;;;;;;5.96;25.84;96508.89;1715826;84;21016;-67
2022/03/13 11:12:26;;;;;;;6.90;4.30;;;;;;;6.54;26.68;96505.27;1715725;83;21084;-67
2022/03/13 11:14:58;;;;;;;6.33;4.47;;;;;;;7.28;26.15;96501.23;1715836;84;21004;-67
2022/03/13 11:17:30;;;;;;;7.90;5.23;;;;;;;7.98;23.39;96481.14;1715971;84;21155;-68
2022/03/13 11:19:59;;;;;;;8.00;5.90;;;;;;;8.53;25.11;96479.23;1716114;84;20973;-68
2022/03/13 11:22:28;;;;;;;7.53;5.73;;;;;;;9.23;23.76;96481.16;1715707;84;21583;-68
2022/03/13 11:25:04;;;;;;;8.10;5.97;;;;;;;9.41;22.90;96482.05;1715688;84;21478;-68
2022/03/13 11:27:35;;;;;;;7.60;5.30;;;;;;;9.54;22.93;96467.98;1687312;84;21060;-67
2022/03/13 11:30:03;;;;;;;5.97;4.60;;;;;;;9.82;20.66;96470.14;1703747;84;21509;-67
2022/03/13 11:32:41;;;;;;;7.30;5.08;;;;;;;10.05;20.63;96469.22;1715958;84;20997;-67